createdAt,value
2023-02-04T00:01:12.967Z,11.30
2023-02-04T00:03:39.971Z,11.30
2023-02-04T00:06:07.173Z,11.30
2023-02-04T00:08:34.166Z,11.30
2023-02-04T00:11:01.215Z,11.30
2023-02-04T00:13:28.188Z,11.30
2023-02-04T00:15:55.381Z,11.30
2023-02-04T00:18:22.471Z,11.20
2023-02-04T00:20:49.494Z,11.20
2023-02-04T00:23:16.589Z,11.20
2023-02-04T00:25:43.748Z,11.10
2023-02-04T00:28:10.880Z,11.10
2023-02-04T00:30:37.967Z,11.00
2023-02-04T00:33:04.954Z,10.90
2023-02-04T00:35:31.942Z,10.90
2023-02-04T00:37:58.982Z,10.90
2023-02-04T00:40:25.967Z,10.80
2023-02-04T00:42:53.004Z,10.80
2023-02-04T00:45:20.144Z,10.80
2023-02-04T00:47:47.232Z,10.80
2023-02-04T00:50:14.300Z,10.70
2023-02-04T00:52:41.283Z,10.70
2023-02-04T00:55:10.470Z,10.70
2023-02-04T00:57:37.452Z,10.70
2023-02-04T01:00:05.500Z,10.70
2023-02-04T01:02:32.651Z,10.70
2023-02-04T01:04:59.603Z,10.70
2023-02-04T01:07:26.666Z,10.70
2023-02-04T01:09:53.888Z,10.60
2023-02-04T01:12:23.116Z,10.60
2023-02-04T01:14:50.351Z,10.60
2023-02-04T01:17:18.615Z,10.50
2023-02-04T01:19:45.709Z,10.50
2023-02-04T01:22:12.731Z,10.50
2023-02-04T01:24:40.007Z,10.50
2023-02-04T01:27:07.012Z,10.40
2023-02-04T01:29:34.004Z,10.40
2023-02-04T01:32:01.271Z,10.30
2023-02-04T01:34:28.631Z,10.30
2023-02-04T01:36:55.617Z,10.20
2023-02-04T01:39:22.653Z,10.20
2023-02-04T01:41:49.767Z,10.20
2023-02-04T01:44:16.908Z,10.20
2023-02-04T01:46:44.076Z,10.20
2023-02-04T01:49:11.476Z,10.10
2023-02-04T01:51:38.590Z,10.00
2023-02-04T01:54:06.610Z,10.00
2023-02-04T01:56:33.598Z,10.00
2023-02-04T01:59:00.670Z,10.00
2023-02-04T02:01:44.170Z,10.00
2023-02-04T02:04:11.989Z,9.90
2023-02-04T02:06:42.522Z,9.90
2023-02-04T02:09:09.561Z,9.90
2023-02-04T02:11:37.226Z,9.90
2023-02-04T02:14:04.474Z,9.90
2023-02-04T02:16:31.547Z,9.90
2023-02-04T02:19:00.115Z,9.90
2023-02-04T02:21:31.543Z,9.90
2023-02-04T02:24:01.047Z,9.90
2023-02-04T02:26:28.345Z,9.90
2023-02-04T02:28:55.466Z,9.90
2023-02-04T02:31:23.029Z,9.90
2023-02-04T02:33:50.329Z,9.90
2023-02-04T02:36:17.721Z,10.00
2023-02-04T02:38:44.846Z,9.90
2023-02-04T02:41:11.963Z,9.90
2023-02-04T02:43:39.157Z,9.90
2023-02-04T02:46:06.499Z,10.00
2023-02-04T02:48:33.682Z,9.90
2023-02-04T02:51:00.796Z,10.00
2023-02-04T02:53:27.855Z,10.00
2023-02-04T02:55:54.859Z,10.00
2023-02-04T02:58:21.793Z,10.00
2023-02-04T03:00:48.910Z,10.00
2023-02-04T03:03:24.399Z,10.00
2023-02-04T03:05:54.680Z,10.10
2023-02-04T03:08:21.805Z,10.10
2023-02-04T03:10:49.183Z,10.10
2023-02-04T03:13:16.690Z,10.20
2023-02-04T03:15:44.889Z,10.20
2023-02-04T03:18:12.645Z,10.20
2023-02-04T03:20:40.070Z,10.20
2023-02-04T03:23:07.129Z,10.30
2023-02-04T03:25:34.271Z,10.30
2023-02-04T03:28:01.547Z,10.30
2023-02-04T03:30:28.577Z,10.20
2023-02-04T03:32:55.751Z,10.30
2023-02-04T03:35:22.855Z,10.20
2023-02-04T03:37:50.097Z,10.20
2023-02-04T03:40:17.630Z,10.10
2023-02-04T03:42:44.645Z,10.00
2023-02-04T03:45:11.777Z,10.00
2023-02-04T03:47:38.876Z,10.00
2023-02-04T03:50:06.266Z,10.00
2023-02-04T03:52:33.521Z,9.90
2023-02-04T03:55:00.592Z,9.80
2023-02-04T03:57:27.558Z,9.90
2023-02-04T03:59:54.602Z,9.80
2023-02-04T04:02:21.599Z,9.80
2023-02-04T04:04:48.631Z,9.80
2023-02-04T04:07:15.684Z,9.80
2023-02-04T04:09:42.726Z,9.80
2023-02-04T04:12:09.737Z,9.80
2023-02-04T04:14:37.281Z,9.70
2023-02-04T04:17:04.466Z,9.80
2023-02-04T04:19:32.787Z,9.70
2023-02-04T04:21:59.895Z,9.80
2023-02-04T04:24:27.023Z,9.70
2023-02-04T04:26:54.010Z,9.70
2023-02-04T04:29:21.198Z,9.60
2023-02-04T04:31:48.295Z,9.60
2023-02-04T04:34:15.404Z,9.60
2023-02-04T04:36:42.488Z,9.60
2023-02-04T04:39:09.565Z,9.60
2023-02-04T04:41:36.578Z,9.60
2023-02-04T04:44:03.593Z,9.60
2023-02-04T04:46:30.872Z,9.60
2023-02-04T04:48:58.455Z,9.60
2023-02-04T04:51:25.604Z,9.60
2023-02-04T04:53:52.606Z,9.50
2023-02-04T04:56:19.558Z,9.60
2023-02-04T04:58:46.517Z,9.50
2023-02-04T05:01:13.545Z,9.50
2023-02-04T05:03:40.655Z,9.50
2023-02-04T05:06:09.258Z,9.50
2023-02-04T05:08:36.263Z,9.60
2023-02-04T05:11:03.774Z,9.60
2023-02-04T05:13:30.793Z,9.60
2023-02-04T05:15:57.850Z,9.60
2023-02-04T05:18:24.997Z,9.60
2023-02-04T05:20:51.948Z,9.60
2023-02-04T05:23:18.973Z,9.60
2023-02-04T05:25:45.925Z,9.60
2023-02-04T05:28:13.003Z,9.60
2023-02-04T05:30:40.194Z,9.60
2023-02-04T05:33:07.255Z,9.70
2023-02-04T05:35:34.216Z,9.70
2023-02-04T05:38:01.179Z,9.70
2023-02-04T05:40:28.126Z,9.70
2023-02-04T05:42:55.164Z,9.70
2023-02-04T05:45:22.203Z,9.70
2023-02-04T05:47:49.186Z,9.80
2023-02-04T05:50:16.299Z,9.70
2023-02-04T05:52:43.376Z,9.70
2023-02-04T05:55:13.130Z,9.60
2023-02-04T05:57:40.351Z,9.60
2023-02-04T06:00:07.760Z,9.60
2023-02-04T06:02:34.651Z,9.50
2023-02-04T06:05:01.596Z,9.50
2023-02-04T06:07:28.600Z,9.50
2023-02-04T06:09:55.467Z,9.50
2023-02-04T06:12:22.404Z,9.40
2023-02-04T06:14:49.276Z,9.40
2023-02-04T06:17:16.149Z,9.40
2023-02-04T06:19:43.135Z,9.30
2023-02-04T06:22:10.001Z,9.30
2023-02-04T06:24:36.937Z,9.20
2023-02-04T06:27:03.921Z,9.20
2023-02-04T06:29:30.787Z,9.20
2023-02-04T06:31:57.810Z,9.20
2023-02-04T06:34:24.770Z,9.10
2023-02-04T06:36:51.742Z,9.10
2023-02-04T06:39:18.544Z,9.00
2023-02-04T06:41:45.413Z,9.00
2023-02-04T06:44:12.287Z,9.00
2023-02-04T06:46:39.149Z,8.90
2023-02-04T06:49:06.035Z,8.90
2023-02-04T06:51:33.946Z,8.90
2023-02-04T06:54:00.881Z,8.90
2023-02-04T06:56:29.408Z,8.80
2023-02-04T06:58:56.296Z,8.80
2023-02-04T07:01:23.233Z,8.80
2023-02-04T07:03:50.218Z,8.80
2023-02-04T07:06:17.222Z,8.90
2023-02-04T07:08:44.076Z,8.90
2023-02-04T07:11:11.008Z,8.90
2023-02-04T07:13:37.858Z,8.90
2023-02-04T07:16:06.320Z,9.00
2023-02-04T07:18:33.396Z,9.00
2023-02-04T07:21:00.367Z,9.00
2023-02-04T07:23:28.757Z,9.00
2023-02-04T07:25:59.484Z,9.10
2023-02-04T07:28:26.418Z,9.10
2023-02-04T07:30:53.356Z,9.10
2023-02-04T07:33:20.441Z,9.20
2023-02-04T07:35:47.327Z,9.20
2023-02-04T07:38:14.169Z,9.20
2023-02-04T07:40:41.118Z,9.30
2023-02-04T07:43:08.085Z,9.30
2023-02-04T07:45:34.992Z,9.40
2023-02-04T07:48:02.004Z,9.40
2023-02-04T07:50:28.864Z,9.40
2023-02-04T07:52:55.738Z,9.50
2023-02-04T07:55:22.662Z,9.50
2023-02-04T07:57:49.480Z,9.60
2023-02-04T08:00:16.799Z,9.60
2023-02-04T08:02:43.825Z,9.70
2023-02-04T08:05:11.089Z,9.80
2023-02-04T08:07:38.066Z,10.00
2023-02-04T08:10:06.075Z,10.30
2023-02-04T08:12:33.017Z,10.60
2023-02-04T08:15:01.348Z,10.90
2023-02-04T08:17:28.777Z,12.40
2023-02-04T08:19:56.714Z,15.70
2023-02-04T08:22:23.669Z,14.10
2023-02-04T08:24:50.514Z,15.40
2023-02-04T08:27:17.395Z,18.50
2023-02-04T08:29:44.415Z,17.60
2023-02-04T08:32:13.263Z,16.80
2023-02-04T08:34:42.293Z,15.30
2023-02-04T08:37:09.193Z,14.40
2023-02-04T08:39:36.267Z,13.70
2023-02-04T08:42:03.258Z,13.60
2023-02-04T08:44:30.166Z,13.40
2023-02-04T08:46:57.160Z,13.30
2023-02-04T08:49:24.203Z,13.40
2023-02-04T08:51:51.151Z,13.40
2023-02-04T08:54:18.379Z,13.50
2023-02-04T08:56:45.233Z,13.60
2023-02-04T08:59:12.206Z,13.50
2023-02-04T09:01:39.135Z,13.50
2023-02-04T09:04:06.095Z,13.70
2023-02-04T09:06:33.038Z,13.90
2023-02-04T09:08:59.968Z,14.00
2023-02-04T09:11:27.071Z,14.10
2023-02-04T09:13:55.765Z,14.30
2023-02-04T09:16:22.826Z,14.30
2023-02-04T09:18:49.733Z,14.10
2023-02-04T09:21:16.646Z,14.10
2023-02-04T09:23:44.789Z,14.00
2023-02-04T09:26:11.718Z,13.80
2023-02-04T09:28:38.757Z,13.70
2023-02-04T09:31:06.623Z,13.60
2023-02-04T09:33:34.237Z,13.50
2023-02-04T09:36:01.303Z,13.50
2023-02-04T09:38:28.211Z,13.50
2023-02-04T09:40:56.365Z,13.60
2023-02-04T09:43:27.818Z,13.50
2023-02-04T09:45:54.742Z,13.50
2023-02-04T09:48:22.408Z,13.40
2023-02-04T09:50:50.297Z,13.50
2023-02-04T09:53:21.677Z,13.60
2023-02-04T09:55:50.507Z,13.50
2023-02-04T09:58:21.625Z,13.40
2023-02-04T10:01:08.784Z,13.40
2023-02-04T10:03:35.773Z,13.40
2023-02-04T10:06:02.925Z,13.30
2023-02-04T10:08:31.248Z,13.40
2023-02-04T10:10:58.279Z,13.30
2023-02-04T10:13:32.020Z,13.30
2023-02-04T10:15:59.096Z,13.30
2023-02-04T10:18:28.402Z,13.30
2023-02-04T10:21:06.570Z,13.30
2023-02-04T10:23:33.464Z,13.30
2023-02-04T10:26:00.436Z,13.40
2023-02-04T10:28:34.532Z,13.30
2023-02-04T10:31:01.684Z,13.30
2023-02-04T10:33:28.678Z,13.40
2023-02-04T10:35:56.645Z,13.40
2023-02-04T10:38:24.108Z,13.40
2023-02-04T10:41:01.295Z,13.30
2023-02-04T10:43:28.283Z,13.30
2023-02-04T10:46:00.300Z,13.40
2023-02-04T10:48:28.039Z,13.40
2023-02-04T10:50:56.641Z,13.40
2023-02-04T10:53:42.555Z,13.30
2023-02-04T10:56:20.950Z,13.30
2023-02-04T10:58:48.183Z,13.30
2023-02-04T11:01:15.969Z,13.30
2023-02-04T11:03:43.349Z,13.40
2023-02-04T11:06:11.755Z,13.40
2023-02-04T11:08:38.798Z,13.30
2023-02-04T11:11:25.056Z,13.40
2023-02-04T11:13:51.920Z,13.40
2023-02-04T11:16:19.011Z,13.50
2023-02-04T11:18:46.612Z,13.50
2023-02-04T11:21:14.942Z,13.50
2023-02-04T11:23:42.101Z,13.50
2023-02-04T11:26:21.738Z,13.50
2023-02-04T11:28:50.364Z,13.40
2023-02-04T11:31:20.176Z,13.40
2023-02-04T11:33:48.164Z,13.50
2023-02-04T11:36:15.603Z,13.50
2023-02-04T11:38:46.735Z,13.50
2023-02-04T11:41:25.071Z,13.50
2023-02-04T11:43:52.913Z,13.50
2023-02-04T11:46:20.751Z,13.60
2023-02-04T11:48:52.548Z,13.50
2023-02-04T11:51:20.918Z,13.60
2023-02-04T11:53:51.645Z,13.60
2023-02-04T11:56:22.126Z,13.60
2023-02-04T11:58:50.164Z,13.70
2023-02-04T12:01:25.193Z,13.70
2023-02-04T12:03:59.864Z,13.60
2023-02-04T12:06:31.306Z,13.50
2023-02-04T12:09:16.771Z,13.60
2023-02-04T12:11:56.111Z,13.60
2023-02-04T12:14:28.097Z,13.70
2023-02-04T12:16:56.355Z,13.70
2023-02-04T12:19:23.361Z,13.70
2023-02-04T12:21:50.613Z,13.80
2023-02-04T12:24:17.737Z,13.70
2023-02-04T12:26:44.714Z,13.70
2023-02-04T12:29:12.009Z,13.90
2023-02-04T12:31:39.135Z,14.10
2023-02-04T12:34:06.111Z,14.00
2023-02-04T12:36:33.042Z,14.00
2023-02-04T12:39:00.104Z,13.90
2023-02-04T12:41:27.242Z,14.00
2023-02-04T12:43:55.755Z,14.10
2023-02-04T12:46:22.776Z,14.10
2023-02-04T12:48:49.746Z,14.10
2023-02-04T12:51:16.714Z,14.10
2023-02-04T12:53:43.600Z,14.00
2023-02-04T12:56:10.465Z,14.00
2023-02-04T12:58:37.314Z,14.00
2023-02-04T13:01:04.690Z,14.00
2023-02-04T13:03:32.044Z,14.00
2023-02-04T13:05:59.429Z,13.90
2023-02-04T13:08:26.361Z,13.90
2023-02-04T13:10:53.682Z,13.90
2023-02-04T13:13:21.288Z,13.90
2023-02-04T13:15:48.345Z,13.80
2023-02-04T13:18:17.354Z,13.80
2023-02-04T13:20:46.071Z,13.80
2023-02-04T13:23:13.288Z,13.80
2023-02-04T13:25:40.834Z,13.80
2023-02-04T13:28:07.869Z,13.70
2023-02-04T13:30:34.847Z,13.70
2023-02-04T13:33:01.923Z,13.50
2023-02-04T13:35:28.892Z,13.50
2023-02-04T13:37:56.562Z,13.50
2023-02-04T13:40:23.707Z,13.50
2023-02-04T13:42:50.658Z,13.40
2023-02-04T13:45:19.107Z,13.30
2023-02-04T13:47:47.964Z,13.30
2023-02-04T13:50:16.247Z,13.30
2023-02-04T13:52:43.077Z,13.30
2023-02-04T13:55:09.920Z,13.30
2023-02-04T13:57:37.894Z,13.30
2023-02-04T14:00:06.832Z,13.30
2023-02-04T14:02:33.809Z,13.30
2023-02-04T14:05:01.716Z,13.30
2023-02-04T14:07:30.471Z,13.20
2023-02-04T14:09:57.422Z,13.20
2023-02-04T14:12:24.331Z,13.20
2023-02-04T14:14:51.227Z,13.20
2023-02-04T14:17:18.111Z,13.20
2023-02-04T14:19:45.091Z,13.20
2023-02-04T14:22:13.221Z,13.20
2023-02-04T14:24:42.528Z,13.20
2023-02-04T14:27:09.959Z,13.20
2023-02-04T14:29:36.901Z,13.20
2023-02-04T14:32:04.006Z,13.20
2023-02-04T14:34:31.163Z,13.20
2023-02-04T14:36:58.125Z,13.20
2023-02-04T14:39:25.042Z,13.20
2023-02-04T14:41:52.230Z,13.10
2023-02-04T14:44:20.859Z,13.10
2023-02-04T14:46:48.971Z,13.00
2023-02-04T14:49:16.418Z,13.00
2023-02-04T14:51:43.682Z,13.00
2023-02-04T14:54:11.094Z,12.90
2023-02-04T14:56:38.112Z,12.90
2023-02-04T14:59:05.231Z,12.80
2023-02-04T15:01:32.209Z,12.80
2023-02-04T15:03:59.137Z,12.70
2023-02-04T15:06:26.030Z,12.70
2023-02-04T15:08:53.035Z,12.60
2023-02-04T15:11:20.106Z,12.60
2023-02-04T15:13:47.112Z,12.50
2023-02-04T15:16:15.047Z,12.50
2023-02-04T15:18:42.335Z,12.40
2023-02-04T15:21:09.533Z,12.40
2023-02-04T15:23:36.528Z,12.40
2023-02-04T15:26:03.830Z,12.40
2023-02-04T15:28:31.415Z,12.40
2023-02-04T15:30:58.662Z,12.30
2023-02-04T15:33:25.739Z,12.30
2023-02-04T15:35:52.633Z,12.20
2023-02-04T15:38:19.570Z,12.20
2023-02-04T15:40:46.396Z,12.20
2023-02-04T15:43:13.510Z,12.10
2023-02-04T15:45:43.754Z,12.10
2023-02-04T15:48:10.782Z,12.10
2023-02-04T15:50:38.245Z,12.00
2023-02-04T15:53:05.275Z,12.00
2023-02-04T15:55:32.571Z,12.00
2023-02-04T15:57:59.687Z,11.90
2023-02-04T16:00:26.518Z,11.90
2023-02-04T16:02:53.555Z,11.90
2023-02-04T16:05:20.458Z,11.80
2023-02-04T16:07:47.462Z,11.80
2023-02-04T16:10:14.363Z,11.70
2023-02-04T16:12:41.271Z,11.70
2023-02-04T16:15:08.300Z,11.70
2023-02-04T16:17:35.288Z,11.60
2023-02-04T16:22:30.807Z,11.50
2023-02-04T16:24:57.789Z,11.40
2023-02-04T16:27:25.510Z,11.40
2023-02-04T16:29:52.795Z,11.30
2023-02-04T16:32:19.665Z,11.30
2023-02-04T16:34:46.521Z,11.20
2023-02-04T16:37:13.425Z,11.20
2023-02-04T16:39:42.308Z,11.10
2023-02-04T16:42:09.962Z,11.10
2023-02-04T16:44:37.467Z,11.10
2023-02-04T16:47:07.842Z,11.00
2023-02-04T16:49:35.198Z,11.00
2023-02-04T16:52:04.461Z,10.90
2023-02-04T16:54:31.893Z,10.90
2023-02-04T16:57:00.307Z,10.80
2023-02-04T16:59:30.625Z,10.80
2023-02-04T17:01:57.806Z,10.80
2023-02-04T17:04:25.047Z,10.80
2023-02-04T17:06:52.273Z,10.70
2023-02-04T17:09:19.351Z,10.70
2023-02-04T17:11:46.251Z,10.60
2023-02-04T17:14:16.614Z,10.60
2023-02-04T17:16:43.872Z,10.60
2023-02-04T17:19:10.906Z,10.50
2023-02-04T17:21:40.789Z,10.50
2023-02-04T17:24:08.227Z,10.50
2023-02-04T17:26:38.327Z,10.40
2023-02-04T17:29:06.263Z,10.40
2023-02-04T17:31:33.233Z,10.30
2023-02-04T17:34:00.781Z,10.30
2023-02-04T17:36:28.176Z,10.30
2023-02-04T17:38:56.314Z,10.30
2023-02-04T17:41:23.575Z,10.20
2023-02-04T17:43:50.699Z,10.20
2023-02-04T17:46:17.758Z,10.20
2023-02-04T17:48:44.811Z,10.20
2023-02-04T17:51:11.765Z,10.10
2023-02-04T17:53:40.450Z,10.10
2023-02-04T17:56:11.232Z,10.10
2023-02-04T17:58:38.481Z,10.10
2023-02-04T18:01:13.515Z,10.20
2023-02-04T18:03:42.658Z,10.30
2023-02-04T18:06:29.192Z,10.30
2023-02-04T18:09:05.422Z,10.40
2023-02-04T18:11:39.689Z,10.40
2023-02-04T18:14:17.542Z,10.50
2023-02-04T18:16:45.088Z,10.50
2023-02-04T18:19:31.293Z,10.60
2023-02-04T18:21:58.776Z,10.60
2023-02-04T18:24:30.129Z,10.60
2023-02-04T18:27:01.081Z,10.60
2023-02-04T18:29:27.977Z,10.70
2023-02-04T18:32:10.391Z,10.60
2023-02-04T18:34:38.254Z,10.60
2023-02-04T18:37:23.755Z,10.50
2023-02-04T18:39:50.692Z,10.50
2023-02-04T18:42:22.404Z,10.60
2023-02-04T18:44:49.299Z,10.60
2023-02-04T18:47:26.977Z,10.50
2023-02-04T18:49:53.948Z,10.50
2023-02-04T18:52:21.568Z,10.50
2023-02-04T18:54:51.500Z,10.50
2023-02-04T18:57:28.665Z,10.40
2023-02-04T19:00:15.864Z,10.30
2023-02-04T19:02:47.665Z,10.30
2023-02-04T19:05:37.941Z,10.20
2023-02-04T19:08:04.759Z,10.20
2023-02-04T19:10:38.737Z,10.10
2023-02-04T19:13:25.790Z,10.00
2023-02-04T19:16:13.253Z,10.00
2023-02-04T19:18:43.946Z,9.90
2023-02-04T19:21:18.000Z,9.90
2023-02-04T19:23:45.587Z,10.00
2023-02-04T19:26:42.055Z,10.10
2023-02-04T19:29:30.186Z,10.10
2023-02-04T19:32:07.693Z,10.00
2023-02-04T19:34:37.521Z,9.90
2023-02-04T19:37:33.602Z,9.80
2023-02-04T19:40:01.353Z,9.70
2023-02-04T19:42:36.722Z,9.70
2023-02-04T19:45:22.050Z,9.60
2023-02-04T19:47:50.454Z,9.70
2023-02-04T19:50:25.438Z,9.70
2023-02-04T19:52:55.100Z,9.70
2023-02-04T19:55:48.415Z,9.60
2023-02-04T19:58:22.645Z,9.50
2023-02-04T20:00:49.462Z,9.60
2023-02-04T20:03:23.280Z,9.60
2023-02-04T20:05:50.083Z,9.60
2023-02-04T20:08:32.397Z,9.40
2023-02-04T20:10:59.530Z,9.30
2023-02-04T20:13:26.981Z,9.20
2023-02-04T20:15:56.407Z,9.30
2023-02-04T20:18:26.268Z,9.30
2023-02-04T20:20:54.934Z,9.30
2023-02-04T20:23:29.456Z,9.20
2023-02-04T20:25:56.975Z,9.20
2023-02-04T20:28:38.369Z,9.20
2023-02-04T20:31:17.129Z,9.20
2023-02-04T20:33:47.002Z,9.10
2023-02-04T20:36:13.827Z,9.10
2023-02-04T20:38:41.056Z,9.10
2023-02-04T20:41:18.889Z,9.10
2023-02-04T20:43:46.142Z,9.10
2023-02-04T20:46:24.617Z,9.10
2023-02-04T20:48:52.230Z,9.10
2023-02-04T20:51:23.062Z,9.10
2023-02-04T20:53:54.145Z,9.10
2023-02-04T20:56:25.560Z,9.10
2023-02-04T20:58:57.720Z,9.10
2023-02-04T21:01:37.983Z,9.10
2023-02-04T21:04:17.189Z,9.10
2023-02-04T21:06:44.356Z,9.10
2023-02-04T21:09:18.430Z,9.10
2023-02-04T21:11:45.247Z,9.10
2023-02-04T21:14:12.099Z,9.10
2023-02-04T21:16:39.009Z,9.10
2023-02-04T21:19:05.975Z,9.00
2023-02-04T21:21:32.891Z,9.10
2023-02-04T21:23:59.872Z,9.10
2023-02-04T21:26:26.734Z,9.10
2023-02-04T21:28:53.695Z,9.10
2023-02-04T21:31:20.750Z,9.10
2023-02-04T21:33:47.790Z,9.10
2023-02-04T21:36:14.704Z,9.00
2023-02-04T21:38:41.660Z,9.00
2023-02-04T21:41:08.583Z,9.00
2023-02-04T21:43:35.496Z,9.00
2023-02-04T21:46:02.439Z,9.00
2023-02-04T21:48:29.302Z,9.10
2023-02-04T21:50:56.718Z,9.10
2023-02-04T21:53:23.672Z,9.20
2023-02-04T21:55:50.501Z,9.10
2023-02-04T21:58:17.383Z,9.10
2023-02-04T22:00:44.524Z,9.00
2023-02-04T22:03:15.911Z,9.00
2023-02-04T22:05:43.891Z,9.00
2023-02-04T22:08:11.093Z,9.10
2023-02-04T22:10:38.135Z,9.10
2023-02-04T22:13:05.214Z,9.10
2023-02-04T22:15:32.573Z,9.10
2023-02-04T22:18:00.026Z,9.10
2023-02-04T22:20:27.026Z,9.10
2023-02-04T22:22:54.191Z,9.10
2023-02-04T22:25:21.517Z,9.10
2023-02-04T22:27:49.209Z,9.20
2023-02-04T22:30:17.097Z,9.30
2023-02-04T22:32:44.153Z,9.20
2023-02-04T22:35:11.485Z,9.20
2023-02-04T22:37:38.854Z,9.30
2023-02-04T22:40:07.624Z,9.30
2023-02-04T22:42:34.693Z,9.20
2023-02-04T22:45:03.972Z,9.20
2023-02-04T22:47:32.173Z,9.20
2023-02-04T22:49:59.220Z,9.20
2023-02-04T22:52:26.455Z,9.20
2023-02-04T22:54:53.525Z,9.20
2023-02-04T22:57:20.616Z,9.10
2023-02-04T22:59:47.593Z,9.20
2023-02-04T23:02:14.639Z,9.10
2023-02-04T23:04:43.907Z,9.10
2023-02-04T23:07:11.802Z,9.10
2023-02-04T23:09:39.084Z,9.00
2023-02-04T23:12:15.284Z,9.10
2023-02-04T23:14:46.496Z,9.00
2023-02-04T23:17:14.328Z,9.00
2023-02-04T23:19:41.396Z,9.00
2023-02-04T23:22:09.316Z,9.00
2023-02-04T23:24:36.667Z,9.00
2023-02-04T23:27:04.320Z,9.00
2023-02-04T23:29:35.536Z,9.00
2023-02-04T23:32:02.868Z,9.10
2023-02-04T23:34:30.212Z,9.00
2023-02-04T23:36:57.374Z,9.10
2023-02-04T23:39:24.475Z,9.00
2023-02-04T23:41:51.714Z,9.00
2023-02-04T23:44:18.722Z,9.00
2023-02-04T23:46:45.917Z,9.00
2023-02-04T23:49:12.927Z,9.00
2023-02-04T23:51:40.001Z,9.00
2023-02-04T23:54:07.594Z,9.00
2023-02-04T23:56:34.642Z,9.00
2023-02-04T23:59:01.685Z,9.10
